sensor_id;sensor_type;location;lat;lon;timestamp;temperature;humidity
3202;DHT22;34843;48.744;8.958;2023-02-02T00:01:30;5.00;99.90
3202;DHT22;34843;48.744;8.958;2023-02-02T00:03:56;5.00;99.90
3202;DHT22;34843;48.744;8.958;2023-02-02T00:06:24;5.00;99.90
3202;DHT22;34843;48.744;8.958;2023-02-02T00:08:50;5.00;99.90
3202;DHT22;34843;48.744;8.958;2023-02-02T00:11:17;5.00;99.90
3202;DHT22;34843;48.744;8.958;2023-02-02T00:13:42;4.90;99.90
3202;DHT22;34843;48.744;8.958;2023-02-02T00:18:57;4.90;99.90
3202;DHT22;34843;48.744;8.958;2023-02-02T00:21:23;4.90;99.90
3202;DHT22;34843;48.744;8.958;2023-02-02T00:23:49;4.90;99.90
3202;DHT22;34843;48.744;8.958;2023-02-02T00:26:15;4.90;99.90
3202;DHT22;34843;48.744;8.958;2023-02-02T00:28:41;4.90;99.90
3202;DHT22;34843;48.744;8.958;2023-02-02T00:31:06;5.00;99.90
3202;DHT22;34843;48.744;8.958;2023-02-02T00:33:32;5.00;99.90
3202;DHT22;34843;48.744;8.958;2023-02-02T00:35:57;5.00;99.90
3202;DHT22;34843;48.744;8.958;2023-02-02T00:38:23;5.00;99.90
3202;DHT22;34843;48.744;8.958;2023-02-02T00:40:49;5.00;99.90
3202;DHT22;34843;48.744;8.958;2023-02-02T00:43:14;5.00;99.90
3202;DHT22;34843;48.744;8.958;2023-02-02T00:45:40;5.00;99.90
3202;DHT22;34843;48.744;8.958;2023-02-02T00:48:05;5.00;99.90
3202;DHT22;34843;48.744;8.958;2023-02-02T00:50:31;5.00;99.90
3202;DHT22;34843;48.744;8.958;2023-02-02T00:52:57;5.10;99.90
3202;DHT22;34843;48.744;8.958;2023-02-02T00:55:24;5.10;99.90
3202;DHT22;34843;48.744;8.958;2023-02-02T00:57:49;5.10;99.90
3202;DHT22;34843;48.744;8.958;2023-02-02T01:00:17;5.10;99.90
3202;DHT22;34843;48.744;8.958;2023-02-02T01:02:43;5.10;99.90
3202;DHT22;34843;48.744;8.958;2023-02-02T01:05:10;5.10;99.90
3202;DHT22;34843;48.744;8.958;2023-02-02T01:07:36;5.20;99.90
3202;DHT22;34843;48.744;8.958;2023-02-02T01:10:02;5.20;99.90
3202;DHT22;34843;48.744;8.958;2023-02-02T01:12:28;5.20;99.90
3202;DHT22;34843;48.744;8.958;2023-02-02T01:14:54;5.20;99.90
3202;DHT22;34843;48.744;8.958;2023-02-02T01:17:19;5.20;99.90
3202;DHT22;34843;48.744;8.958;2023-02-02T01:19:45;5.20;99.90
3202;DHT22;34843;48.744;8.958;2023-02-02T01:22:10;5.10;99.90
3202;DHT22;34843;48.744;8.958;2023-02-02T01:24:36;5.10;99.90
3202;DHT22;34843;48.744;8.958;2023-02-02T01:27:01;5.00;99.90
3202;DHT22;34843;48.744;8.958;2023-02-02T01:29:27;4.90;99.90
3202;DHT22;34843;48.744;8.958;2023-02-02T01:31:52;4.90;99.90
3202;DHT22;34843;48.744;8.958;2023-02-02T01:34:18;4.90;99.90
3202;DHT22;34843;48.744;8.958;2023-02-02T01:36:43;4.80;99.90
3202;DHT22;34843;48.744;8.958;2023-02-02T01:39:09;4.80;99.90
3202;DHT22;34843;48.744;8.958;2023-02-02T01:41:34;4.80;99.90
3202;DHT22;34843;48.744;8.958;2023-02-02T01:44:05;4.80;99.90
3202;DHT22;34843;48.744;8.958;2023-02-02T01:46:32;4.90;99.90
3202;DHT22;34843;48.744;8.958;2023-02-02T01:49:16;4.90;99.90
3202;DHT22;34843;48.744;8.958;2023-02-02T01:51:57;4.90;99.90
3202;DHT22;34843;48.744;8.958;2023-02-02T01:54:32;4.90;99.90
3202;DHT22;34843;48.744;8.958;2023-02-02T01:57:07;5.00;99.90
3202;DHT22;34843;48.744;8.958;2023-02-02T01:59:34;4.90;99.90
3202;DHT22;34843;48.744;8.958;2023-02-02T02:02:00;5.00;99.90
3202;DHT22;34843;48.744;8.958;2023-02-02T02:04:26;5.00;99.90
3202;DHT22;34843;48.744;8.958;2023-02-02T02:06:54;5.00;99.90
3202;DHT22;34843;48.744;8.958;2023-02-02T02:09:19;5.00;99.90
3202;DHT22;34843;48.744;8.958;2023-02-02T02:11:45;5.00;99.90
3202;DHT22;34843;48.744;8.958;2023-02-02T02:14:13;5.10;99.90
3202;DHT22;34843;48.744;8.958;2023-02-02T02:22:12;5.10;99.90
3202;DHT22;34843;48.744;8.958;2023-02-02T02:28:42;5.10;99.90
3202;DHT22;34843;48.744;8.958;2023-02-02T02:31:57;5.10;99.90
3202;DHT22;34843;48.744;8.958;2023-02-02T02:34:44;5.10;99.90
3202;DHT22;34843;48.744;8.958;2023-02-02T02:42:45;5.10;99.90
3202;DHT22;34843;48.744;8.958;2023-02-02T02:45:11;5.10;99.90
3202;DHT22;34843;48.744;8.958;2023-02-02T02:47:38;5.10;99.90
3202;DHT22;34843;48.744;8.958;2023-02-02T02:50:05;5.10;99.90
3202;DHT22;34843;48.744;8.958;2023-02-02T02:52:32;5.10;99.90
3202;DHT22;34843;48.744;8.958;2023-02-02T02:54:59;5.00;99.90
3202;DHT22;34843;48.744;8.958;2023-02-02T03:03:18;5.10;99.90
3202;DHT22;34843;48.744;8.958;2023-02-02T03:08:36;5.20;99.90
3202;DHT22;34843;48.744;8.958;2023-02-02T03:11:05;5.20;99.90
3202;DHT22;34843;48.744;8.958;2023-02-02T03:13:32;5.20;99.90
3202;DHT22;34843;48.744;8.958;2023-02-02T03:15:58;5.20;99.90
3202;DHT22;34843;48.744;8.958;2023-02-02T03:18:27;5.20;99.90
3202;DHT22;34843;48.744;8.958;2023-02-02T03:20:53;5.20;99.90
3202;DHT22;34843;48.744;8.958;2023-02-02T03:23:19;5.20;99.90
3202;DHT22;34843;48.744;8.958;2023-02-02T03:25:45;5.20;99.90
3202;DHT22;34843;48.744;8.958;2023-02-02T03:28:11;5.30;99.90
3202;DHT22;34843;48.744;8.958;2023-02-02T03:30:39;5.20;99.90
3202;DHT22;34843;48.744;8.958;2023-02-02T03:33:06;5.20;99.90
3202;DHT22;34843;48.744;8.958;2023-02-02T03:35:31;5.20;99.90
3202;DHT22;34843;48.744;8.958;2023-02-02T03:37:57;5.20;99.90
3202;DHT22;34843;48.744;8.958;2023-02-02T03:40:22;5.20;99.90
3202;DHT22;34843;48.744;8.958;2023-02-02T03:42:48;5.20;99.90
3202;DHT22;34843;48.744;8.958;2023-02-02T03:45:14;5.20;99.90
3202;DHT22;34843;48.744;8.958;2023-02-02T03:47:39;5.20;99.90
3202;DHT22;34843;48.744;8.958;2023-02-02T03:50:06;5.20;99.90
3202;DHT22;34843;48.744;8.958;2023-02-02T03:52:31;5.20;99.90
3202;DHT22;34843;48.744;8.958;2023-02-02T03:54:57;5.20;99.90
3202;DHT22;34843;48.744;8.958;2023-02-02T03:57:22;5.20;99.90
3202;DHT22;34843;48.744;8.958;2023-02-02T03:59:48;5.20;99.90
3202;DHT22;34843;48.744;8.958;2023-02-02T04:02:13;5.20;99.90
3202;DHT22;34843;48.744;8.958;2023-02-02T04:04:39;5.20;99.90
3202;DHT22;34843;48.744;8.958;2023-02-02T04:07:04;5.20;99.90
3202;DHT22;34843;48.744;8.958;2023-02-02T04:09:30;5.20;99.90
3202;DHT22;34843;48.744;8.958;2023-02-02T04:11:55;5.30;99.90
3202;DHT22;34843;48.744;8.958;2023-02-02T04:14:21;5.20;99.90
3202;DHT22;34843;48.744;8.958;2023-02-02T04:16:46;5.20;99.90
3202;DHT22;34843;48.744;8.958;2023-02-02T04:19:12;5.20;99.90
3202;DHT22;34843;48.744;8.958;2023-02-02T04:21:38;5.20;99.90
3202;DHT22;34843;48.744;8.958;2023-02-02T04:24:05;5.20;99.90
3202;DHT22;34843;48.744;8.958;2023-02-02T04:26:31;5.10;99.90
3202;DHT22;34843;48.744;8.958;2023-02-02T04:28:57;5.20;99.90
3202;DHT22;34843;48.744;8.958;2023-02-02T04:31:22;5.20;99.90
3202;DHT22;34843;48.744;8.958;2023-02-02T04:33:48;5.20;99.90
3202;DHT22;34843;48.744;8.958;2023-02-02T04:36:14;5.20;99.90
3202;DHT22;34843;48.744;8.958;2023-02-02T04:38:39;5.20;99.90
3202;DHT22;34843;48.744;8.958;2023-02-02T04:41:06;5.20;99.90
3202;DHT22;34843;48.744;8.958;2023-02-02T04:43:33;5.20;99.90
3202;DHT22;34843;48.744;8.958;2023-02-02T04:45:59;5.20;99.90
3202;DHT22;34843;48.744;8.958;2023-02-02T04:48:24;5.20;99.90
3202;DHT22;34843;48.744;8.958;2023-02-02T04:50:50;5.30;99.90
3202;DHT22;34843;48.744;8.958;2023-02-02T04:53:15;5.20;99.90
3202;DHT22;34843;48.744;8.958;2023-02-02T04:55:41;5.30;99.90
3202;DHT22;34843;48.744;8.958;2023-02-02T04:58:07;5.30;99.90
3202;DHT22;34843;48.744;8.958;2023-02-02T05:00:32;5.30;99.90
3202;DHT22;34843;48.744;8.958;2023-02-02T05:02:58;5.30;99.90
3202;DHT22;34843;48.744;8.958;2023-02-02T05:05:24;5.30;99.90
3202;DHT22;34843;48.744;8.958;2023-02-02T05:07:49;5.30;99.90
3202;DHT22;34843;48.744;8.958;2023-02-02T05:10:15;5.30;99.90
3202;DHT22;34843;48.744;8.958;2023-02-02T05:12:41;5.30;99.90
3202;DHT22;34843;48.744;8.958;2023-02-02T05:15:06;5.30;99.90
3202;DHT22;34843;48.744;8.958;2023-02-02T05:17:32;5.30;99.90
3202;DHT22;34843;48.744;8.958;2023-02-02T05:19:58;5.30;99.90
3202;DHT22;34843;48.744;8.958;2023-02-02T05:22:23;5.30;99.90
3202;DHT22;34843;48.744;8.958;2023-02-02T05:24:49;5.40;99.90
3202;DHT22;34843;48.744;8.958;2023-02-02T05:27:14;5.30;99.90
3202;DHT22;34843;48.744;8.958;2023-02-02T05:29:40;5.30;99.90
3202;DHT22;34843;48.744;8.958;2023-02-02T05:32:05;5.40;99.90
3202;DHT22;34843;48.744;8.958;2023-02-02T05:34:31;5.40;99.90
3202;DHT22;34843;48.744;8.958;2023-02-02T05:36:56;5.40;99.90
3202;DHT22;34843;48.744;8.958;2023-02-02T05:39:22;5.40;99.90
3202;DHT22;34843;48.744;8.958;2023-02-02T05:41:47;5.40;99.90
3202;DHT22;34843;48.744;8.958;2023-02-02T05:44:13;5.30;99.90
3202;DHT22;34843;48.744;8.958;2023-02-02T05:46:39;5.30;99.90
3202;DHT22;34843;48.744;8.958;2023-02-02T05:49:06;5.30;99.90
3202;DHT22;34843;48.744;8.958;2023-02-02T05:51:35;5.30;99.90
3202;DHT22;34843;48.744;8.958;2023-02-02T05:54:01;5.30;99.90
3202;DHT22;34843;48.744;8.958;2023-02-02T05:56:27;5.30;99.90
3202;DHT22;34843;48.744;8.958;2023-02-02T05:58:52;5.30;99.90
3202;DHT22;34843;48.744;8.958;2023-02-02T06:01:18;5.30;99.90
3202;DHT22;34843;48.744;8.958;2023-02-02T06:03:43;5.30;99.90
3202;DHT22;34843;48.744;8.958;2023-02-02T06:06:09;5.30;99.90
3202;DHT22;34843;48.744;8.958;2023-02-02T06:08:35;5.30;99.90
3202;DHT22;34843;48.744;8.958;2023-02-02T06:11:10;5.30;99.90
3202;DHT22;34843;48.744;8.958;2023-02-02T06:13:35;5.30;99.90
3202;DHT22;34843;48.744;8.958;2023-02-02T06:16:01;5.30;99.90
3202;DHT22;34843;48.744;8.958;2023-02-02T06:18:26;5.30;99.90
3202;DHT22;34843;48.744;8.958;2023-02-02T06:20:59;5.30;99.90
3202;DHT22;34843;48.744;8.958;2023-02-02T06:23:24;5.30;99.90
3202;DHT22;34843;48.744;8.958;2023-02-02T06:25:50;5.30;99.90
3202;DHT22;34843;48.744;8.958;2023-02-02T06:28:15;5.30;99.90
3202;DHT22;34843;48.744;8.958;2023-02-02T06:30:41;5.30;99.90
3202;DHT22;34843;48.744;8.958;2023-02-02T06:33:07;5.30;99.90
3202;DHT22;34843;48.744;8.958;2023-02-02T06:35:33;5.30;99.90
3202;DHT22;34843;48.744;8.958;2023-02-02T06:37:59;5.30;99.90
3202;DHT22;34843;48.744;8.958;2023-02-02T06:40:25;5.30;99.90
3202;DHT22;34843;48.744;8.958;2023-02-02T06:42:58;5.30;99.90
3202;DHT22;34843;48.744;8.958;2023-02-02T06:45:24;5.30;99.90
3202;DHT22;34843;48.744;8.958;2023-02-02T06:47:51;5.30;99.90
3202;DHT22;34843;48.744;8.958;2023-02-02T06:50:17;5.30;99.90
3202;DHT22;34843;48.744;8.958;2023-02-02T06:52:49;5.30;99.90
3202;DHT22;34843;48.744;8.958;2023-02-02T06:55:16;5.30;99.90
3202;DHT22;34843;48.744;8.958;2023-02-02T06:57:41;5.30;99.90
3202;DHT22;34843;48.744;8.958;2023-02-02T07:00:07;5.30;99.90
3202;DHT22;34843;48.744;8.958;2023-02-02T07:02:33;5.30;99.90
3202;DHT22;34843;48.744;8.958;2023-02-02T07:04:59;5.30;99.90
3202;DHT22;34843;48.744;8.958;2023-02-02T07:07:25;5.30;99.90
3202;DHT22;34843;48.744;8.958;2023-02-02T07:09:51;5.40;99.90
3202;DHT22;34843;48.744;8.958;2023-02-02T07:12:16;5.30;99.90
3202;DHT22;34843;48.744;8.958;2023-02-02T07:14:44;5.40;99.90
3202;DHT22;34843;48.744;8.958;2023-02-02T07:17:10;5.40;99.90
3202;DHT22;34843;48.744;8.958;2023-02-02T07:19:35;5.40;99.90
3202;DHT22;34843;48.744;8.958;2023-02-02T07:22:01;5.40;99.90
3202;DHT22;34843;48.744;8.958;2023-02-02T07:24:26;5.30;99.90
3202;DHT22;34843;48.744;8.958;2023-02-02T07:26:52;5.30;99.90
3202;DHT22;34843;48.744;8.958;2023-02-02T07:29:17;5.40;99.90
3202;DHT22;34843;48.744;8.958;2023-02-02T07:31:43;5.30;99.90
3202;DHT22;34843;48.744;8.958;2023-02-02T07:34:08;5.30;99.90
3202;DHT22;34843;48.744;8.958;2023-02-02T07:36:34;5.30;99.90
3202;DHT22;34843;48.744;8.958;2023-02-02T07:39:00;5.30;99.90
3202;DHT22;34843;48.744;8.958;2023-02-02T07:41:28;5.30;99.90
3202;DHT22;34843;48.744;8.958;2023-02-02T07:43:53;5.40;99.90
3202;DHT22;34843;48.744;8.958;2023-02-02T07:46:19;5.30;99.90
3202;DHT22;34843;48.744;8.958;2023-02-02T07:48:45;5.40;99.90
3202;DHT22;34843;48.744;8.958;2023-02-02T07:51:13;5.40;99.90
3202;DHT22;34843;48.744;8.958;2023-02-02T07:53:42;5.40;99.90
3202;DHT22;34843;48.744;8.958;2023-02-02T07:56:08;5.50;99.90
3202;DHT22;34843;48.744;8.958;2023-02-02T07:58:34;5.50;99.90
3202;DHT22;34843;48.744;8.958;2023-02-02T08:01:01;5.50;99.90
3202;DHT22;34843;48.744;8.958;2023-02-02T08:03:27;5.60;99.90
3202;DHT22;34843;48.744;8.958;2023-02-02T08:05:53;5.70;99.90
3202;DHT22;34843;48.744;8.958;2023-02-02T08:08:18;5.80;99.90
3202;DHT22;34843;48.744;8.958;2023-02-02T08:10:48;5.80;99.90
3202;DHT22;34843;48.744;8.958;2023-02-02T08:13:14;5.80;99.90
3202;DHT22;34843;48.744;8.958;2023-02-02T08:15:39;5.80;99.90
3202;DHT22;34843;48.744;8.958;2023-02-02T08:18:05;5.80;99.90
3202;DHT22;34843;48.744;8.958;2023-02-02T08:20:31;5.80;99.90
3202;DHT22;34843;48.744;8.958;2023-02-02T08:22:57;5.80;99.90
3202;DHT22;34843;48.744;8.958;2023-02-02T08:25:22;5.90;99.90
3202;DHT22;34843;48.744;8.958;2023-02-02T08:27:52;5.90;99.90
3202;DHT22;34843;48.744;8.958;2023-02-02T08:30:18;6.00;99.90
3202;DHT22;34843;48.744;8.958;2023-02-02T08:32:43;6.00;99.90
3202;DHT22;34843;48.744;8.958;2023-02-02T08:35:09;6.10;99.90
3202;DHT22;34843;48.744;8.958;2023-02-02T08:37:34;6.10;99.90
3202;DHT22;34843;48.744;8.958;2023-02-02T08:40:00;6.20;99.90
3202;DHT22;34843;48.744;8.958;2023-02-02T08:42:25;6.20;99.90
3202;DHT22;34843;48.744;8.958;2023-02-02T08:44:51;6.20;99.90
3202;DHT22;34843;48.744;8.958;2023-02-02T08:47:16;6.00;99.90
3202;DHT22;34843;48.744;8.958;2023-02-02T08:49:42;6.00;99.90
3202;DHT22;34843;48.744;8.958;2023-02-02T08:52:09;6.10;99.90
3202;DHT22;34843;48.744;8.958;2023-02-02T08:54:34;6.10;99.90
3202;DHT22;34843;48.744;8.958;2023-02-02T08:57:00;6.10;99.90
3202;DHT22;34843;48.744;8.958;2023-02-02T08:59:25;6.10;99.90
3202;DHT22;34843;48.744;8.958;2023-02-02T09:01:51;6.00;99.90
3202;DHT22;34843;48.744;8.958;2023-02-02T09:04:16;5.90;99.90
3202;DHT22;34843;48.744;8.958;2023-02-02T09:06:43;5.90;99.90
3202;DHT22;34843;48.744;8.958;2023-02-02T09:09:11;5.90;99.90
3202;DHT22;34843;48.744;8.958;2023-02-02T09:11:38;5.90;99.90
3202;DHT22;34843;48.744;8.958;2023-02-02T09:14:03;5.90;99.90
3202;DHT22;34843;48.744;8.958;2023-02-02T09:16:31;5.90;99.90
3202;DHT22;34843;48.744;8.958;2023-02-02T09:18:56;5.90;99.90
3202;DHT22;34843;48.744;8.958;2023-02-02T09:21:22;6.00;99.90
3202;DHT22;34843;48.744;8.958;2023-02-02T09:23:49;6.10;99.90
3202;DHT22;34843;48.744;8.958;2023-02-02T09:26:22;6.20;99.90
3202;DHT22;34843;48.744;8.958;2023-02-02T09:28:59;6.20;99.90
3202;DHT22;34843;48.744;8.958;2023-02-02T09:31:32;6.20;99.90
3202;DHT22;34843;48.744;8.958;2023-02-02T09:34:01;6.10;99.90
3202;DHT22;34843;48.744;8.958;2023-02-02T09:36:27;6.10;99.90
3202;DHT22;34843;48.744;8.958;2023-02-02T09:38:53;6.00;99.90
3202;DHT22;34843;48.744;8.958;2023-02-02T09:52:57;6.00;99.90
3202;DHT22;34843;48.744;8.958;2023-02-02T09:55:36;6.00;99.90
3202;DHT22;34843;48.744;8.958;2023-02-02T09:58:25;6.00;99.90
3202;DHT22;34843;48.744;8.958;2023-02-02T10:01:13;6.00;99.90
3202;DHT22;34843;48.744;8.958;2023-02-02T10:06:38;6.00;99.90
3202;DHT22;34843;48.744;8.958;2023-02-02T10:09:35;5.90;99.90
3202;DHT22;34843;48.744;8.958;2023-02-02T10:12:34;6.00;99.90
3202;DHT22;34843;48.744;8.958;2023-02-02T10:15:15;6.10;99.90
3202;DHT22;34843;48.744;8.958;2023-02-02T10:20:46;6.30;99.90
3202;DHT22;34843;48.744;8.958;2023-02-02T10:23:25;6.40;99.90
3202;DHT22;34843;48.744;8.958;2023-02-02T10:25:58;6.40;99.90
3202;DHT22;34843;48.744;8.958;2023-02-02T10:28:33;6.50;99.90
3202;DHT22;34843;48.744;8.958;2023-02-02T10:31:03;6.40;99.90
3202;DHT22;34843;48.744;8.958;2023-02-02T10:33:39;6.40;99.90
3202;DHT22;34843;48.744;8.958;2023-02-02T10:38:50;6.50;99.90
3202;DHT22;34843;48.744;8.958;2023-02-02T10:41:44;6.50;99.90
3202;DHT22;34843;48.744;8.958;2023-02-02T10:44:27;6.50;99.90
3202;DHT22;34843;48.744;8.958;2023-02-02T10:46:57;6.40;99.90
3202;DHT22;34843;48.744;8.958;2023-02-02T10:49:39;6.20;99.90
3202;DHT22;34843;48.744;8.958;2023-02-02T10:52:32;6.20;99.90
3202;DHT22;34843;48.744;8.958;2023-02-02T11:00:51;6.10;99.90
3202;DHT22;34843;48.744;8.958;2023-02-02T11:03:20;6.10;99.90
3202;DHT22;34843;48.744;8.958;2023-02-02T11:05:46;6.10;99.90
3202;DHT22;34843;48.744;8.958;2023-02-02T11:08:31;6.20;99.90
3202;DHT22;34843;48.744;8.958;2023-02-02T11:11:08;6.30;99.90
3202;DHT22;34843;48.744;8.958;2023-02-02T11:13:41;6.30;99.90
3202;DHT22;34843;48.744;8.958;2023-02-02T11:18:44;6.20;99.90
3202;DHT22;34843;48.744;8.958;2023-02-02T11:23:58;6.00;99.90
3202;DHT22;34843;48.744;8.958;2023-02-02T11:26:26;6.10;99.90
3202;DHT22;34843;48.744;8.958;2023-02-02T11:28:54;6.20;99.90
3202;DHT22;34843;48.744;8.958;2023-02-02T11:31:36;6.10;99.90
3202;DHT22;34843;48.744;8.958;2023-02-02T11:34:18;6.30;99.90
3202;DHT22;34843;48.744;8.958;2023-02-02T11:36:57;6.30;99.90
3202;DHT22;34843;48.744;8.958;2023-02-02T11:39:24;6.40;99.90
3202;DHT22;34843;48.744;8.958;2023-02-02T11:41:57;6.30;99.90
3202;DHT22;34843;48.744;8.958;2023-02-02T11:44:26;6.30;99.90
3202;DHT22;34843;48.744;8.958;2023-02-02T11:46:52;6.30;99.90
3202;DHT22;34843;48.744;8.958;2023-02-02T11:49:19;6.30;99.90
3202;DHT22;34843;48.744;8.958;2023-02-02T11:51:56;6.30;99.90
3202;DHT22;34843;48.744;8.958;2023-02-02T11:54:34;6.40;99.90
3202;DHT22;34843;48.744;8.958;2023-02-02T11:57:02;6.40;99.90
3202;DHT22;34843;48.744;8.958;2023-02-02T11:59:38;6.40;99.90
3202;DHT22;34843;48.744;8.958;2023-02-02T12:04:46;6.40;99.90
3202;DHT22;34843;48.744;8.958;2023-02-02T12:07:27;6.50;99.90
3202;DHT22;34843;48.744;8.958;2023-02-02T12:09:58;6.40;99.90
3202;DHT22;34843;48.744;8.958;2023-02-02T12:15:08;6.50;99.90
3202;DHT22;34843;48.744;8.958;2023-02-02T12:17:42;6.50;99.90
3202;DHT22;34843;48.744;8.958;2023-02-02T12:20:34;6.40;99.90
3202;DHT22;34843;48.744;8.958;2023-02-02T12:23:25;6.50;99.90
3202;DHT22;34843;48.744;8.958;2023-02-02T12:26:16;6.40;99.90
3202;DHT22;34843;48.744;8.958;2023-02-02T12:31:43;6.30;99.90
3202;DHT22;34843;48.744;8.958;2023-02-02T12:34:45;6.30;99.90
3202;DHT22;34843;48.744;8.958;2023-02-02T12:40:42;6.10;99.90
3202;DHT22;34843;48.744;8.958;2023-02-02T12:48:30;6.10;99.90
3202;DHT22;34843;48.744;8.958;2023-02-02T12:53:43;6.00;99.90
3202;DHT22;34843;48.744;8.958;2023-02-02T12:56:20;5.90;99.90
3202;DHT22;34843;48.744;8.958;2023-02-02T12:58:57;5.80;99.90
3202;DHT22;34843;48.744;8.958;2023-02-02T13:01:39;5.80;99.90
3202;DHT22;34843;48.744;8.958;2023-02-02T13:12:24;5.60;99.90
3202;DHT22;34843;48.744;8.958;2023-02-02T13:15:31;5.60;99.90
3202;DHT22;34843;48.744;8.958;2023-02-02T13:17:52;5.60;99.90
3202;DHT22;34843;48.744;8.958;2023-02-02T13:22:59;5.50;99.90
3202;DHT22;34843;48.744;8.958;2023-02-02T13:25:34;5.60;99.90
3202;DHT22;34843;48.744;8.958;2023-02-02T13:28:03;5.60;99.90
3202;DHT22;34843;48.744;8.958;2023-02-02T13:30:38;5.60;99.90
3202;DHT22;34843;48.744;8.958;2023-02-02T13:33:16;5.60;99.90
3202;DHT22;34843;48.744;8.958;2023-02-02T13:35:56;5.60;99.90
3202;DHT22;34843;48.744;8.958;2023-02-02T13:38:25;5.70;99.90
3202;DHT22;34843;48.744;8.958;2023-02-02T13:40:53;5.70;99.90
3202;DHT22;34843;48.744;8.958;2023-02-02T13:43:59;5.60;99.90
3202;DHT22;34843;48.744;8.958;2023-02-02T13:46:59;5.60;99.90
3202;DHT22;34843;48.744;8.958;2023-02-02T13:49:31;5.70;99.90
3202;DHT22;34843;48.744;8.958;2023-02-02T14:00:30;5.80;99.90
3202;DHT22;34843;48.744;8.958;2023-02-02T14:03:03;5.80;99.90
3202;DHT22;34843;48.744;8.958;2023-02-02T14:05:33;5.80;99.90
3202;DHT22;34843;48.744;8.958;2023-02-02T14:08:16;5.80;99.90
3202;DHT22;34843;48.744;8.958;2023-02-02T14:10:55;5.80;99.90
3202;DHT22;34843;48.744;8.958;2023-02-02T14:13:24;5.90;99.90
3202;DHT22;34843;48.744;8.958;2023-02-02T14:16:43;5.90;99.90
3202;DHT22;34843;48.744;8.958;2023-02-02T14:19:14;5.90;99.90
3202;DHT22;34843;48.744;8.958;2023-02-02T14:31:58;6.00;99.90
3202;DHT22;34843;48.744;8.958;2023-02-02T14:45:48;6.20;99.90
3202;DHT22;34843;48.744;8.958;2023-02-02T14:48:21;6.20;99.90
3202;DHT22;34843;48.744;8.958;2023-02-02T14:50:53;6.10;99.90
3202;DHT22;34843;48.744;8.958;2023-02-02T14:53:34;6.20;99.90
3202;DHT22;34843;48.744;8.958;2023-02-02T14:56:14;6.10;99.90
3202;DHT22;34843;48.744;8.958;2023-02-02T14:58:59;6.10;99.90
3202;DHT22;34843;48.744;8.958;2023-02-02T15:01:29;6.20;99.90
3202;DHT22;34843;48.744;8.958;2023-02-02T15:06:48;6.30;99.90
3202;DHT22;34843;48.744;8.958;2023-02-02T15:23:22;6.20;99.90
3202;DHT22;34843;48.744;8.958;2023-02-02T15:34:10;6.10;99.90
3202;DHT22;34843;48.744;8.958;2023-02-02T15:36:38;6.00;99.90
3202;DHT22;34843;48.744;8.958;2023-02-02T15:39:31;6.00;99.90
3202;DHT22;34843;48.744;8.958;2023-02-02T15:42:00;6.00;99.90
3202;DHT22;34843;48.744;8.958;2023-02-02T15:44:46;6.00;99.90
3202;DHT22;34843;48.744;8.958;2023-02-02T15:47:22;6.00;99.90
3202;DHT22;34843;48.744;8.958;2023-02-02T15:49:51;5.90;99.90
3202;DHT22;34843;48.744;8.958;2023-02-02T15:52:30;5.90;99.90
3202;DHT22;34843;48.744;8.958;2023-02-02T15:55:00;5.90;99.90
3202;DHT22;34843;48.744;8.958;2023-02-02T15:57:32;5.90;99.90
3202;DHT22;34843;48.744;8.958;2023-02-02T15:59:59;5.80;99.90
3202;DHT22;34843;48.744;8.958;2023-02-02T16:02:36;5.80;99.90
3202;DHT22;34843;48.744;8.958;2023-02-02T16:08:03;5.80;99.90
3202;DHT22;34843;48.744;8.958;2023-02-02T16:10:29;5.90;99.90
3202;DHT22;34843;48.744;8.958;2023-02-02T16:12:55;5.80;99.90
3202;DHT22;34843;48.744;8.958;2023-02-02T16:15:25;6.70;99.90
3202;DHT22;34843;48.744;8.958;2023-02-02T16:18:05;5.80;99.90
3202;DHT22;34843;48.744;8.958;2023-02-02T16:20:38;5.90;99.90
3202;DHT22;34843;48.744;8.958;2023-02-02T16:23:11;5.70;99.90
3202;DHT22;34843;48.744;8.958;2023-02-02T16:25:50;5.80;99.90
3202;DHT22;34843;48.744;8.958;2023-02-02T16:28:18;5.80;99.90
3202;DHT22;34843;48.744;8.958;2023-02-02T16:30:44;5.80;99.90
3202;DHT22;34843;48.744;8.958;2023-02-02T16:35:51;5.70;99.90
3202;DHT22;34843;48.744;8.958;2023-02-02T16:40:42;5.70;99.90
3202;DHT22;34843;48.744;8.958;2023-02-02T16:45:46;5.80;99.90
3202;DHT22;34843;48.744;8.958;2023-02-02T16:53:45;5.80;99.90
3202;DHT22;34843;48.744;8.958;2023-02-02T16:56:30;5.70;99.90
3202;DHT22;34843;48.744;8.958;2023-02-02T16:59:00;5.80;99.90
3202;DHT22;34843;48.744;8.958;2023-02-02T17:01:35;5.80;99.90
3202;DHT22;34843;48.744;8.958;2023-02-02T17:04:02;5.70;99.90
3202;DHT22;34843;48.744;8.958;2023-02-02T17:06:31;5.70;99.90
3202;DHT22;34843;48.744;8.958;2023-02-02T17:09:13;5.70;99.90
3202;DHT22;34843;48.744;8.958;2023-02-02T17:11:39;5.70;99.90
3202;DHT22;34843;48.744;8.958;2023-02-02T17:14:19;5.70;99.90
3202;DHT22;34843;48.744;8.958;2023-02-02T17:16:44;5.70;99.90
3202;DHT22;34843;48.744;8.958;2023-02-02T17:19:10;5.80;99.90
3202;DHT22;34843;48.744;8.958;2023-02-02T17:21:35;5.80;99.90
3202;DHT22;34843;48.744;8.958;2023-02-02T17:24:01;5.70;99.90
3202;DHT22;34843;48.744;8.958;2023-02-02T17:26:27;5.70;99.90
3202;DHT22;34843;48.744;8.958;2023-02-02T17:28:55;5.70;99.90
3202;DHT22;34843;48.744;8.958;2023-02-02T17:31:21;5.70;99.90
3202;DHT22;34843;48.744;8.958;2023-02-02T17:33:47;5.60;99.90
3202;DHT22;34843;48.744;8.958;2023-02-02T17:36:12;5.60;99.90
3202;DHT22;34843;48.744;8.958;2023-02-02T17:38:38;5.60;99.90
3202;DHT22;34843;48.744;8.958;2023-02-02T17:41:04;5.50;99.90
3202;DHT22;34843;48.744;8.958;2023-02-02T17:43:31;5.50;99.90
3202;DHT22;34843;48.744;8.958;2023-02-02T17:45:58;5.50;99.90
3202;DHT22;34843;48.744;8.958;2023-02-02T17:48:24;5.50;99.90
3202;DHT22;34843;48.744;8.958;2023-02-02T17:50:50;5.50;99.90
3202;DHT22;34843;48.744;8.958;2023-02-02T17:53:18;5.40;99.90
3202;DHT22;34843;48.744;8.958;2023-02-02T17:55:45;5.40;99.90
3202;DHT22;34843;48.744;8.958;2023-02-02T17:58:12;5.40;99.90
3202;DHT22;34843;48.744;8.958;2023-02-02T18:00:42;5.40;99.90
3202;DHT22;34843;48.744;8.958;2023-02-02T18:03:22;5.30;99.90
3202;DHT22;34843;48.744;8.958;2023-02-02T18:05:49;5.40;99.90
3202;DHT22;34843;48.744;8.958;2023-02-02T18:08:15;5.40;99.90
3202;DHT22;34843;48.744;8.958;2023-02-02T18:10:41;5.40;99.90
3202;DHT22;34843;48.744;8.958;2023-02-02T18:13:08;5.40;99.90
3202;DHT22;34843;48.744;8.958;2023-02-02T18:15:35;5.40;99.90
3202;DHT22;34843;48.744;8.958;2023-02-02T18:18:01;5.40;99.90
3202;DHT22;34843;48.744;8.958;2023-02-02T18:20:26;5.40;99.90
3202;DHT22;34843;48.744;8.958;2023-02-02T18:22:52;5.40;99.90
3202;DHT22;34843;48.744;8.958;2023-02-02T18:25:18;5.40;99.90
3202;DHT22;34843;48.744;8.958;2023-02-02T18:27:44;5.40;99.90
3202;DHT22;34843;48.744;8.958;2023-02-02T18:30:10;5.40;99.90
3202;DHT22;34843;48.744;8.958;2023-02-02T18:32:37;5.40;99.90
3202;DHT22;34843;48.744;8.958;2023-02-02T18:35:04;5.50;99.90
3202;DHT22;34843;48.744;8.958;2023-02-02T18:37:30;5.40;99.90
3202;DHT22;34843;48.744;8.958;2023-02-02T18:39:55;5.40;99.90
3202;DHT22;34843;48.744;8.958;2023-02-02T18:42:22;5.40;99.90
3202;DHT22;34843;48.744;8.958;2023-02-02T18:44:47;5.40;99.90
3202;DHT22;34843;48.744;8.958;2023-02-02T18:47:13;5.40;99.90
3202;DHT22;34843;48.744;8.958;2023-02-02T18:49:38;5.40;99.90
3202;DHT22;34843;48.744;8.958;2023-02-02T18:52:04;5.40;99.90
3202;DHT22;34843;48.744;8.958;2023-02-02T18:54:30;5.50;99.90
3202;DHT22;34843;48.744;8.958;2023-02-02T18:56:56;5.40;99.90